Time Latitude Longitude Accuracy (66% radius in meters) Altitude (meters) Speed (km/hour) Bearing (degrees) Battery (%) GPS flag
03:59:44 51.899788 107.660050 12 660 0.24186773598194 209.60000610352 65 1 delete
03:59:39 51.899700 107.660139 11 661 1.1501739025116 357.60000610352 65 1 delete
03:59:23 51.899615 107.660247 14 656 0 0 65 1 delete
03:59:13 51.899586 107.660389 26 656 0 0 65 1 delete
03:59:11 51.899580 107.660401 25 656 0 0 65 1 delete
03:59:02 51.899514 107.660510 24 655 1.3601471185684 29.5 65 1 delete
03:58:55 51.899425 107.660569 23 655 0.89022469520569 23.299999237061 65 1 delete
03:58:42 51.899359 107.660690 22 658 1.415097117424 20.200000762939 65 1 delete
03:58:32 51.899228 107.660600 26 660 0.54129475355148 69.599998474121 65 1 delete
03:58:23 51.899257 107.660667 15 658 0.96046859025955 8.6000003814697 65 1 delete
03:58:10 51.899209 107.660755 12 659 0.36496576666832 166 65 1 delete
03:58:04 51.899250 107.660901 11 663 1.356244802475 244.19999694824 65 1 delete
03:57:46 51.899277 107.661070 12 668 0 0 65 1 delete
03:57:33 51.899246 107.661206 13 664 1.2684636116028 146.10000610352 65 1 delete
03:57:31 51.899251 107.661214 13 664 0.2731299996376 173.89999389648 65 1 delete
03:57:25 51.899306 107.661346 12 664 0.973293364048 328.10000610352 65 1 delete
03:57:19 51.899282 107.661492 10 665 2.7280945777893 284.79998779297 65 1 delete
03:57:15 51.899280 107.661663 10 666 3.5014283657074 263.39999389648 65 1 delete
03:57:12 51.899301 107.661820 10 666 3.6055512428284 265.20001220703 65 1 delete
03:57:09 51.899311 107.661990 11 666 2.2901964187622 267.39999389648 65 1 delete
03:57:04 51.899324 107.662192 11 668 1.1601723432541 258.70001220703 65 1 delete
03:56:57 51.899334 107.662350 10 669 1.8022485971451 235.69999694824 65 1 delete
03:56:52 51.899411 107.662459 11 668 1.3263860940933 260.5 65 1 delete
03:56:43 51.899402 107.662603 10 669 1.2747548818588 227.5 65 1 delete
03:56:42 51.899412 107.662624 9 668 1.3408206701279 230.60000610352 65 1 delete
03:56:27 51.899480 107.662763 11 675 2.800874710083 217 65 1 delete
03:56:24 51.899567 107.662880 12 677 2.280021905899 205.30000305176 65 1 delete
03:56:19 51.899667 107.662963 16 673 1.9736515283585 215.19999694824 65 1 delete
03:56:16 51.899798 107.663075 22 672 1.4500000476837 225 65 1 delete
03:56:15 51.899946 107.663305 28 670 1.7426991462708 58.700000762939 65 1 delete
03:56:12 51.900043 107.663456 25 668 2.955486536026 42 65 1 delete
03:56:00 51.899953 107.663411 10 668 0.59033888578415 286.89999389648 65 1 delete
03:55:52 51.899947 107.663517 10 669 1.5616016387939 229.5 65 1 delete
03:55:50 51.899969 107.663570 10 669 1.299884557724 234.30000305176 65 1 delete
03:55:45 51.900016 107.663711 11 670 0.72560316324234 269 65 1 delete
03:55:39 51.900086 107.663815 10 669 1.027715921402 241.89999389648 65 1 delete
03:55:31 51.900104 107.663981 11 669 1.2448694705963 276.60000610352 65 1 delete
03:55:25 51.900134 107.664122 12 668 0.87132084369659 320.89999389648 65 1 delete
03:55:21 51.900047 107.664185 13 667 1.2567417621613 232.5 65 1 delete
03:55:12 51.900048 107.664361 13 668 0.6139218211174 275.89999389648 65 1 delete
03:55:07 51.900074 107.664537 14 670 0.84095185995102 274.60000610352 65 1 delete
03:55:03 51.900133 107.664688 14 669 0.27202939987183 248.69999694824 65 1 delete
03:55:02 51.900148 107.664735 14 669 0.32649657130241 273.60000610352 65 1 delete
03:55:00 51.900126 107.664836 17 672 0.58694124221802 195.19999694824 65 1 delete
03:54:48 51.900171 107.664970 13 673 1.0358570814133 296 65 1 delete
03:54:43 51.900129 107.665113 14 674 2.411679983139 268 65 1 delete
03:54:41 51.900164 107.665255 14 674 2.140584230423 271 65 1 delete
03:54:36 51.900181 107.665449 11 670 2.1727864742279 287.20001220703 65 1 delete
03:54:32 51.900122 107.665603 11 669 2.0329780578613 283.20001220703 65 1 delete
03:54:27 51.900118 107.665784 11 666 1.8004443645477 281.29998779297 65 1 delete